Time;durP1;ratioP1;P1;durP2;ratioP2;P2;SDS_P1;SDS_P2;PMS_P1;PMS_P2;Temp;Humidity;BMP_temperature;BMP_pressure;BME280_temperature;BME280_humidity;BME280_pressure;Samples;Min_cycle;Max_cycle;Signal;HPM_P1;HPM_P2
2023/12/31 00:00:52;;;;;;;75.53;33.20;;;;;;;;;;4907718;29;20268;-73
2023/12/31 00:03:17;;;;;;;85.07;37.00;;;;;;;;;;4924181;29;20221;-74
2023/12/31 00:05:43;;;;;;;85.20;36.97;;;;;;;;;;4923893;29;20244;-72
2023/12/31 00:08:09;;;;;;;89.13;37.07;;;;;;;;;;4922435;29;20249;-73
2023/12/31 00:10:35;;;;;;;86.60;37.30;;;;;;;;;;4924299;29;20225;-71
2023/12/31 00:13:00;;;;;;;87.93;36.73;;;;;;;;;;4908025;29;20399;-72
2023/12/31 00:15:26;;;;;;;87.57;38.17;;;;;;;;;;4925364;29;20627;-73
2023/12/31 00:17:51;;;;;;;108.40;43.23;;;;;;;;;;4908545;29;20300;-73
2023/12/31 00:20:16;;;;;;;98.40;40.63;;;;;;;;;;4923626;29;20264;-73
2023/12/31 00:22:42;;;;;;;100.37;41.53;;;;;;;;;;4923368;29;20312;-73
2023/12/31 00:25:07;;;;;;;134.73;51.33;;;;;;;;;;4924899;29;20777;-74
2023/12/31 00:27:33;;;;;;;143.73;55.83;;;;;;;;;;4924464;29;20367;-73
2023/12/31 00:29:58;;;;;;;134.30;52.37;;;;;;;;;;4921777;29;20635;-73
2023/12/31 00:32:23;;;;;;;144.60;55.70;;;;;;;;;;4925729;29;20225;-73
2023/12/31 00:34:49;;;;;;;143.53;55.63;;;;;;;;;;4923212;29;20225;-72
2023/12/31 00:37:14;;;;;;;149.77;57.60;;;;;;;;;;4924398;29;20324;-73
2023/12/31 00:39:39;;;;;;;155.97;57.77;;;;;;;;;;4924960;29;20231;-73
2023/12/31 00:42:05;;;;;;;145.07;55.07;;;;;;;;;;4907811;29;20647;-74
2023/12/31 00:44:31;;;;;;;155.13;57.23;;;;;;;;;;4926184;29;20240;-73
2023/12/31 00:46:56;;;;;;;147.30;56.80;;;;;;;;;;4924375;29;20237;-73
2023/12/31 00:49:21;;;;;;;151.50;56.17;;;;;;;;;;4924690;29;20232;-74
2023/12/31 00:51:47;;;;;;;153.20;59.43;;;;;;;;;;4923068;29;21059;-73
2023/12/31 00:54:12;;;;;;;157.07;59.70;;;;;;;;;;4907723;29;20288;-73
2023/12/31 00:56:37;;;;;;;158.63;59.87;;;;;;;;;;4925075;29;20753;-71
2023/12/31 00:59:03;;;;;;;153.87;60.43;;;;;;;;;;4923125;29;20238;-71
2023/12/31 01:01:28;;;;;;;168.33;64.10;;;;;;;;;;4923874;29;20260;-71
2023/12/31 01:03:54;;;;;;;160.50;61.27;;;;;;;;;;4924035;29;20228;-72
2023/12/31 01:06:19;;;;;;;162.27;61.00;;;;;;;;;;4923013;29;20245;-72
2023/12/31 01:08:44;;;;;;;153.03;57.63;;;;;;;;;;4924901;29;20237;-71
2023/12/31 01:11:09;;;;;;;157.60;59.50;;;;;;;;;;4923458;29;20363;-71
2023/12/31 01:13:35;;;;;;;170.50;63.13;;;;;;;;;;4921368;29;20913;-71
2023/12/31 01:16:00;;;;;;;159.30;60.37;;;;;;;;;;4906924;29;20631;-71
2023/12/31 01:18:26;;;;;;;159.00;58.57;;;;;;;;;;4907928;29;20602;-71
2023/12/31 01:20:51;;;;;;;153.37;57.20;;;;;;;;;;4923216;29;20230;-72
2023/12/31 01:23:16;;;;;;;154.67;58.53;;;;;;;;;;4925764;29;20228;-72
2023/12/31 01:25:42;;;;;;;156.43;58.20;;;;;;;;;;4915759;29;20249;-71
2023/12/31 01:28:07;;;;;;;156.03;58.77;;;;;;;;;;4923103;29;20245;-72
2023/12/31 01:30:32;;;;;;;158.13;59.27;;;;;;;;;;4923755;29;20225;-71
2023/12/31 01:32:58;;;;;;;161.70;60.20;;;;;;;;;;4923607;29;20518;-72
2023/12/31 01:35:23;;;;;;;152.73;58.17;;;;;;;;;;4904946;29;20718;-72
2023/12/31 01:37:49;;;;;;;148.13;57.70;;;;;;;;;;4924034;29;20221;-72
2023/12/31 01:40:14;;;;;;;146.13;56.17;;;;;;;;;;4927320;29;20233;-71
2023/12/31 01:42:39;;;;;;;134.07;52.33;;;;;;;;;;4926689;29;20308;-71
2023/12/31 01:45:05;;;;;;;138.67;55.17;;;;;;;;;;4926320;29;20751;-71
2023/12/31 01:47:31;;;;;;;134.10;52.27;;;;;;;;;;4909715;29;20234;-71
2023/12/31 01:49:56;;;;;;;128.97;51.10;;;;;;;;;;4909462;29;20252;-71
2023/12/31 01:52:22;;;;;;;125.73;50.47;;;;;;;;;;4928622;29;20236;-71
2023/12/31 01:54:47;;;;;;;123.87;48.73;;;;;;;;;;4926736;29;20229;-71
2023/12/31 01:57:12;;;;;;;121.33;46.80;;;;;;;;;;4926272;29;20280;-70
2023/12/31 01:59:38;;;;;;;115.90;46.47;;;;;;;;;;4926138;29;20228;-70
2023/12/31 02:02:03;;;;;;;114.63;45.20;;;;;;;;;;4925486;29;20316;-71
2023/12/31 02:04:33;;;;;;;111.17;45.67;;;;;;;;;;4928142;29;20256;-70
2023/12/31 02:06:59;;;;;;;112.07;46.73;;;;;;;;;;4926396;29;20245;-71
2023/12/31 02:09:24;;;;;;;122.33;47.90;;;;;;;;;;4926429;29;20233;-71
2023/12/31 02:11:50;;;;;;;113.90;46.17;;;;;;;;;;4910603;29;20987;-72
2023/12/31 02:14:15;;;;;;;113.00;43.83;;;;;;;;;;4925848;29;20229;-71
2023/12/31 02:16:40;;;;;;;103.70;40.93;;;;;;;;;;4927866;29;20270;-71
2023/12/31 02:19:06;;;;;;;106.13;42.90;;;;;;;;;;4927095;29;20308;-72
2023/12/31 02:21:31;;;;;;;105.73;41.67;;;;;;;;;;4926404;29;20226;-71
2023/12/31 02:23:56;;;;;;;97.83;41.10;;;;;;;;;;4915041;29;20233;-72
2023/12/31 02:26:21;;;;;;;96.37;39.67;;;;;;;;;;4926765;29;20328;-72
2023/12/31 02:28:47;;;;;;;94.27;41.00;;;;;;;;;;4909871;29;20232;-71
2023/12/31 02:31:12;;;;;;;102.90;42.13;;;;;;;;;;4926768;29;20241;-71
2023/12/31 02:33:37;;;;;;;94.80;39.93;;;;;;;;;;4925458;29;20700;-70
2023/12/31 02:36:03;;;;;;;98.77;40.47;;;;;;;;;;4907761;29;20238;-72
2023/12/31 02:38:28;;;;;;;103.97;43.20;;;;;;;;;;4926055;29;20229;-71
2023/12/31 02:40:53;;;;;;;102.23;43.47;;;;;;;;;;4927611;29;20233;-72
2023/12/31 02:43:19;;;;;;;110.43;45.63;;;;;;;;;;4909841;29;20233;-73
2023/12/31 02:45:44;;;;;;;110.87;45.27;;;;;;;;;;4925713;29;20270;-73
2023/12/31 02:48:09;;;;;;;121.13;47.03;;;;;;;;;;4925070;29;20707;-72
2023/12/31 02:50:35;;;;;;;119.70;47.43;;;;;;;;;;4927692;29;20225;-73
2023/12/31 02:53:00;;;;;;;124.93;48.57;;;;;;;;;;4925616;29;20249;-73
2023/12/31 02:55:25;;;;;;;111.23;45.57;;;;;;;;;;4906603;29;20226;-73
2023/12/31 02:57:51;;;;;;;109.67;44.83;;;;;;;;;;4907967;29;20294;-73
2023/12/31 03:00:16;;;;;;;105.73;44.27;;;;;;;;;;4927199;29;20328;-73
2023/12/31 03:02:42;;;;;;;101.37;41.80;;;;;;;;;;4927627;29;20214;-72
2023/12/31 03:05:10;;;;;;;104.97;42.50;;;;;;;;;;4926174;29;20238;-73
2023/12/31 03:07:36;;;;;;;104.23;42.83;;;;;;;;;;4925418;29;20238;-73
2023/12/31 03:10:01;;;;;;;99.90;42.17;;;;;;;;;;4924165;29;20239;-72
2023/12/31 03:12:26;;;;;;;99.80;41.47;;;;;;;;;;4925661;29;20229;-72
2023/12/31 03:14:52;;;;;;;102.50;42.00;;;;;;;;;;4926227;29;20305;-72
2023/12/31 03:17:17;;;;;;;93.63;39.50;;;;;;;;;;4925140;29;20238;-72
2023/12/31 03:19:42;;;;;;;92.07;38.30;;;;;;;;;;4926296;29;20236;-74
2023/12/31 03:22:07;;;;;;;81.37;35.80;;;;;;;;;;4925639;29;20241;-73
2023/12/31 03:24:33;;;;;;;81.07;35.10;;;;;;;;;;4924981;29;20882;-73
2023/12/31 03:26:58;;;;;;;85.33;37.23;;;;;;;;;;4925188;29;20244;-73
2023/12/31 03:29:24;;;;;;;84.33;36.60;;;;;;;;;;4925004;29;20667;-73
2023/12/31 03:31:49;;;;;;;84.10;37.33;;;;;;;;;;4924888;29;20317;-74
2023/12/31 03:34:14;;;;;;;80.00;35.17;;;;;;;;;;4908620;29;20656;-73
2023/12/31 03:36:40;;;;;;;79.80;33.80;;;;;;;;;;4906068;29;20256;-72
2023/12/31 03:39:05;;;;;;;78.90;33.97;;;;;;;;;;4922935;29;20297;-74
2023/12/31 03:41:31;;;;;;;75.10;33.17;;;;;;;;;;4909346;29;20217;-73
2023/12/31 03:43:56;;;;;;;75.57;32.73;;;;;;;;;;4924235;29;20222;-73
2023/12/31 03:46:21;;;;;;;75.43;32.57;;;;;;;;;;4909157;29;20252;-73
2023/12/31 03:48:46;;;;;;;77.17;32.87;;;;;;;;;;4925195;29;20619;-73
2023/12/31 03:51:12;;;;;;;69.90;30.93;;;;;;;;;;4921703;29;20255;-74
2023/12/31 03:53:38;;;;;;;67.30;30.43;;;;;;;;;;4907981;29;20589;-73
2023/12/31 03:56:03;;;;;;;70.67;30.63;;;;;;;;;;4923235;29;20226;-73
2023/12/31 03:58:28;;;;;;;75.67;33.13;;;;;;;;;;4919759;29;20225;-73
2023/12/31 04:00:54;;;;;;;77.63;33.07;;;;;;;;;;4922903;29;21246;-71
2023/12/31 04:03:19;;;;;;;76.17;33.03;;;;;;;;;;4925545;29;20230;-73
2023/12/31 04:05:45;;;;;;;76.97;33.10;;;;;;;;;;4908521;29;20794;-73
2023/12/31 04:08:10;;;;;;;74.97;32.23;;;;;;;;;;4923391;29;20245;-73
2023/12/31 04:10:36;;;;;;;72.50;31.73;;;;;;;;;;4925007;29;20218;-73
2023/12/31 04:13:02;;;;;;;70.70;30.90;;;;;;;;;;4919791;29;20236;-73
2023/12/31 04:15:27;;;;;;;69.97;30.83;;;;;;;;;;4905550;29;20225;-73
2023/12/31 04:17:52;;;;;;;72.10;31.70;;;;;;;;;;4920510;29;20255;-73
2023/12/31 04:20:18;;;;;;;74.13;31.57;;;;;;;;;;4922471;29;20233;-73
2023/12/31 04:22:43;;;;;;;80.43;33.80;;;;;;;;;;4925528;29;20224;-73
2023/12/31 04:25:08;;;;;;;86.33;37.13;;;;;;;;;;4923871;29;20319;-74
2023/12/31 04:27:38;;;;;;;82.00;35.90;;;;;;;;;;4925334;29;20229;-73
2023/12/31 04:30:03;;;;;;;93.97;38.63;;;;;;;;;;4923952;29;20240;-73
2023/12/31 04:32:29;;;;;;;91.97;38.80;;;;;;;;;;4924480;29;20221;-73
2023/12/31 04:34:54;;;;;;;93.27;40.17;;;;;;;;;;4925587;29;20225;-74
2023/12/31 04:37:19;;;;;;;102.57;42.63;;;;;;;;;;4924065;29;20328;-74
2023/12/31 04:39:45;;;;;;;101.00;41.13;;;;;;;;;;4923326;29;20233;-73
2023/12/31 04:42:10;;;;;;;100.00;41.50;;;;;;;;;;4923590;29;20233;-74
2023/12/31 04:44:35;;;;;;;99.47;40.90;;;;;;;;;;4908774;29;20241;-73
2023/12/31 04:47:01;;;;;;;97.07;40.37;;;;;;;;;;4922625;29;20237;-73
2023/12/31 04:49:26;;;;;;;94.50;38.07;;;;;;;;;;4924480;29;20222;-73
2023/12/31 04:51:51;;;;;;;90.57;38.03;;;;;;;;;;4924750;29;20221;-73
2023/12/31 04:54:17;;;;;;;98.87;39.33;;;;;;;;;;4924891;29;20229;-73
2023/12/31 04:56:42;;;;;;;94.97;38.97;;;;;;;;;;4923870;29;20265;-74
2023/12/31 04:59:07;;;;;;;96.33;40.50;;;;;;;;;;4922691;29;20225;-73
2023/12/31 05:01:33;;;;;;;95.20;39.43;;;;;;;;;;4925545;29;20412;-73
2023/12/31 05:03:58;;;;;;;98.83;39.20;;;;;;;;;;4907717;29;20370;-74
2023/12/31 05:06:24;;;;;;;91.20;38.53;;;;;;;;;;4924760;29;20243;-73
2023/12/31 05:08:49;;;;;;;90.37;38.33;;;;;;;;;;4923812;29;20701;-73
2023/12/31 05:11:15;;;;;;;81.97;35.60;;;;;;;;;;4925127;29;20233;-73
2023/12/31 05:13:40;;;;;;;87.67;36.13;;;;;;;;;;4927305;29;20228;-73
2023/12/31 05:16:06;;;;;;;91.13;37.07;;;;;;;;;;4928525;29;20317;-72
2023/12/31 05:18:31;;;;;;;90.10;35.87;;;;;;;;;;4911012;29;21035;-72
2023/12/31 05:20:56;;;;;;;81.83;34.23;;;;;;;;;;4926492;29;20308;-73
2023/12/31 05:23:22;;;;;;;84.60;34.47;;;;;;;;;;4927151;29;20738;-73
2023/12/31 05:25:49;;;;;;;81.40;35.03;;;;;;;;;;4928569;29;20932;-73
2023/12/31 05:28:14;;;;;;;88.33;34.93;;;;;;;;;;4925208;29;20236;-72
2023/12/31 05:30:41;;;;;;;82.60;33.67;;;;;;;;;;4911159;29;20221;-72
2023/12/31 05:33:07;;;;;;;79.17;34.23;;;;;;;;;;4926198;29;20226;-72
2023/12/31 05:35:32;;;;;;;76.67;34.10;;;;;;;;;;4927352;29;21199;-72
2023/12/31 05:37:57;;;;;;;80.10;34.03;;;;;;;;;;4928101;29;20595;-73
2023/12/31 05:40:22;;;;;;;79.70;34.57;;;;;;;;;;4926829;29;20221;-74
2023/12/31 05:42:48;;;;;;;79.53;34.17;;;;;;;;;;4928553;29;20221;-74
2023/12/31 05:45:13;;;;;;;77.67;34.37;;;;;;;;;;4927177;29;20241;-73
2023/12/31 05:47:39;;;;;;;80.23;35.10;;;;;;;;;;4926731;29;20260;-73
2023/12/31 05:50:04;;;;;;;82.23;34.40;;;;;;;;;;4910703;29;20244;-73
2023/12/31 05:52:29;;;;;;;77.13;32.97;;;;;;;;;;4910363;29;20221;-73
2023/12/31 05:54:55;;;;;;;74.73;34.00;;;;;;;;;;4910208;29;20234;-73
2023/12/31 05:57:20;;;;;;;75.30;32.47;;;;;;;;;;4927883;29;20241;-73
2023/12/31 05:59:45;;;;;;;81.80;34.03;;;;;;;;;;4927121;29;20312;-73
2023/12/31 06:02:11;;;;;;;78.00;33.50;;;;;;;;;;4913093;29;20244;-73
2023/12/31 06:04:36;;;;;;;78.93;34.23;;;;;;;;;;4875130;29;20336;-73
2023/12/31 06:07:01;;;;;;;73.90;33.23;;;;;;;;;;4877875;29;20241;-72
2023/12/31 06:09:27;;;;;;;75.73;33.97;;;;;;;;;;4878785;29;20328;-73
2023/12/31 06:11:52;;;;;;;76.17;34.73;;;;;;;;;;4879118;29;20802;-74
2023/12/31 06:14:18;;;;;;;75.17;34.60;;;;;;;;;;4879147;29;20260;-72
2023/12/31 06:16:43;;;;;;;79.63;34.43;;;;;;;;;;4859106;29;20404;-71
2023/12/31 06:19:09;;;;;;;76.33;33.63;;;;;;;;;;4864436;29;20236;-71
2023/12/31 06:21:34;;;;;;;70.73;32.73;;;;;;;;;;4879732;29;20225;-72
2023/12/31 06:23:59;;;;;;;74.10;33.27;;;;;;;;;;4875966;29;20292;-71
2023/12/31 06:26:25;;;;;;;79.77;34.10;;;;;;;;;;4871114;29;20240;-72
2023/12/31 06:28:50;;;;;;;75.17;33.67;;;;;;;;;;4877891;29;20221;-71
2023/12/31 06:31:15;;;;;;;77.53;33.77;;;;;;;;;;4860950;29;20230;-72
2023/12/31 06:33:41;;;;;;;79.03;33.53;;;;;;;;;;4880207;29;20221;-71
2023/12/31 06:36:06;;;;;;;79.53;34.33;;;;;;;;;;4876686;29;20240;-71
2023/12/31 06:38:31;;;;;;;79.20;35.00;;;;;;;;;;4861689;29;20280;-71
2023/12/31 06:40:57;;;;;;;78.87;34.50;;;;;;;;;;4860893;29;20237;-72
2023/12/31 06:43:22;;;;;;;77.83;34.13;;;;;;;;;;4869414;29;20258;-71
2023/12/31 06:45:47;;;;;;;78.23;34.17;;;;;;;;;;4877696;29;20312;-71
2023/12/31 06:48:13;;;;;;;76.60;33.93;;;;;;;;;;4876027;29;20625;-71
2023/12/31 06:50:38;;;;;;;76.80;35.00;;;;;;;;;;4878358;29;20723;-72
2023/12/31 06:53:03;;;;;;;83.03;36.17;;;;;;;;;;4860110;29;20225;-71
2023/12/31 06:55:29;;;;;;;77.27;34.53;;;;;;;;;;4878049;29;21025;-71
2023/12/31 06:57:54;;;;;;;78.03;35.37;;;;;;;;;;4875275;29;20366;-71
2023/12/31 07:00:23;;;;;;;81.70;34.23;;;;;;;;;;4876447;29;20675;-72
2023/12/31 07:02:48;;;;;;;77.77;35.60;;;;;;;;;;4887984;29;20332;-71
2023/12/31 07:05:13;;;;;;;79.30;35.33;;;;;;;;;;4902683;29;20905;-70
2023/12/31 07:07:40;;;;;;;80.40;35.70;;;;;;;;;;4924670;29;20240;-73
2023/12/31 07:10:06;;;;;;;80.67;36.33;;;;;;;;;;4924884;29;20726;-71
2023/12/31 07:12:31;;;;;;;77.80;35.43;;;;;;;;;;4923582;29;20312;-71
2023/12/31 07:14:56;;;;;;;81.20;36.37;;;;;;;;;;4909292;29;20235;-72
2023/12/31 07:17:23;;;;;;;81.13;35.60;;;;;;;;;;4909844;29;20221;-72
2023/12/31 07:19:48;;;;;;;83.43;37.23;;;;;;;;;;4925056;29;20256;-72
2023/12/31 07:22:14;;;;;;;87.67;38.80;;;;;;;;;;4926214;29;20930;-71
2023/12/31 07:24:39;;;;;;;95.63;40.67;;;;;;;;;;4892765;29;21086;-72
2023/12/31 07:27:05;;;;;;;99.73;42.13;;;;;;;;;;4857266;29;20551;-72
2023/12/31 07:29:30;;;;;;;96.60;41.47;;;;;;;;;;4874392;29;20864;-71
2023/12/31 07:31:55;;;;;;;103.23;43.63;;;;;;;;;;4874757;29;20229;-70
2023/12/31 07:34:21;;;;;;;91.77;40.73;;;;;;;;;;4874506;29;20229;-70
2023/12/31 07:36:46;;;;;;;87.47;38.90;;;;;;;;;;4856774;29;20292;-71
2023/12/31 07:39:11;;;;;;;84.80;39.47;;;;;;;;;;4872633;29;20325;-71
2023/12/31 07:41:37;;;;;;;94.07;40.90;;;;;;;;;;4873324;29;20449;-71
2023/12/31 07:44:02;;;;;;;93.17;39.23;;;;;;;;;;4877689;29;20247;-73
2023/12/31 07:46:27;;;;;;;89.00;39.63;;;;;;;;;;4872685;29;20356;-74
2023/12/31 07:48:53;;;;;;;100.30;46.07;;;;;;;;;;4873571;29;20233;-74
2023/12/31 07:51:18;;;;;;;105.43;45.43;;;;;;;;;;4861680;29;20228;-72
2023/12/31 07:53:44;;;;;;;108.97;47.57;;;;;;;;;;4877417;29;20221;-74
2023/12/31 07:56:09;;;;;;;99.33;47.50;;;;;;;;;;4861493;29;20241;-73
2023/12/31 07:58:35;;;;;;;100.03;45.40;;;;;;;;;;4873436;29;20237;-74
2023/12/31 08:01:02;;;;;;;92.70;43.90;;;;;;;;;;4859007;29;20237;-72
2023/12/31 08:03:28;;;;;;;92.50;41.17;;;;;;;;;;4863059;29;20240;-73
2023/12/31 08:05:53;;;;;;;106.70;51.17;;;;;;;;;;4878255;29;20245;-73
2023/12/31 08:08:19;;;;;;;97.30;45.60;;;;;;;;;;4877611;29;20265;-72
2023/12/31 08:10:44;;;;;;;87.10;44.27;;;;;;;;;;4904670;29;20247;-72
2023/12/31 08:13:09;;;;;;;95.30;45.63;;;;;;;;;;4903953;29;21370;-75
2023/12/31 08:15:35;;;;;;;89.30;44.40;;;;;;;;;;4903343;29;20263;-74
2023/12/31 08:18:02;;;;;;;68.10;34.80;;;;;;;;;;4905935;29;20257;-74
2023/12/31 08:20:27;;;;;;;62.73;31.93;;;;;;;;;;4922071;29;20237;-74
2023/12/31 08:22:53;;;;;;;58.13;29.23;;;;;;;;;;4927929;29;20331;-73
2023/12/31 08:25:19;;;;;;;61.37;30.37;;;;;;;;;;4904230;29;20245;-74
2023/12/31 08:27:44;;;;;;;58.20;28.27;;;;;;;;;;4907065;29;20222;-74
2023/12/31 08:30:10;;;;;;;59.93;30.57;;;;;;;;;;4923446;29;20233;-74
2023/12/31 08:32:35;;;;;;;65.37;29.67;;;;;;;;;;4921531;29;20225;-73
2023/12/31 08:35:01;;;;;;;48.40;24.10;;;;;;;;;;4922140;29;20292;-73
2023/12/31 08:37:26;;;;;;;60.03;30.20;;;;;;;;;;4922159;29;20230;-74
2023/12/31 08:39:51;;;;;;;50.17;25.63;;;;;;;;;;4916881;29;20261;-72
2023/12/31 08:42:17;;;;;;;48.67;24.03;;;;;;;;;;4918189;29;20229;-72
2023/12/31 08:44:43;;;;;;;42.27;21.27;;;;;;;;;;4924018;29;20233;-73
2023/12/31 08:47:09;;;;;;;42.93;21.47;;;;;;;;;;4925294;29;20229;-72
2023/12/31 08:49:34;;;;;;;44.33;22.23;;;;;;;;;;4927667;29;20292;-73
2023/12/31 08:52:00;;;;;;;46.10;22.37;;;;;;;;;;4907847;29;20427;-73
2023/12/31 08:54:25;;;;;;;40.73;21.13;;;;;;;;;;4918895;29;20220;-73
2023/12/31 08:56:51;;;;;;;44.63;22.43;;;;;;;;;;4914120;29;20243;-73
2023/12/31 08:59:16;;;;;;;47.37;22.87;;;;;;;;;;4930039;29;20217;-74
2023/12/31 09:01:42;;;;;;;45.77;22.07;;;;;;;;;;4929821;29;20623;-74
2023/12/31 09:04:07;;;;;;;42.70;21.40;;;;;;;;;;4931299;29;20637;-73
2023/12/31 09:06:32;;;;;;;40.53;20.53;;;;;;;;;;4920837;29;20608;-74
2023/12/31 09:08:58;;;;;;;50.47;28.10;;;;;;;;;;4930601;29;20328;-73
2023/12/31 09:11:23;;;;;;;45.87;23.10;;;;;;;;;;4929783;29;20304;-73
2023/12/31 09:13:48;;;;;;;51.93;25.53;;;;;;;;;;4930302;29;20229;-73
2023/12/31 09:16:14;;;;;;;50.60;25.63;;;;;;;;;;4929943;29;20225;-74
2023/12/31 09:18:39;;;;;;;54.63;26.83;;;;;;;;;;4932646;29;20232;-74
2023/12/31 09:21:04;;;;;;;56.97;28.87;;;;;;;;;;4930428;29;20245;-73
2023/12/31 09:23:30;;;;;;;62.37;30.13;;;;;;;;;;4931175;29;20225;-74
2023/12/31 09:25:55;;;;;;;62.60;32.23;;;;;;;;;;4930699;29;20245;-74
2023/12/31 09:28:21;;;;;;;56.13;28.10;;;;;;;;;;4931029;29;20221;-74
2023/12/31 09:30:46;;;;;;;53.47;27.43;;;;;;;;;;4930598;29;20933;-73
2023/12/31 09:33:11;;;;;;;52.83;26.37;;;;;;;;;;4936930;29;20233;-73
2023/12/31 09:35:40;;;;;;;54.60;26.03;;;;;;;;;;4933037;29;20264;-73
2023/12/31 09:38:05;;;;;;;50.70;25.83;;;;;;;;;;4928116;29;20218;-73
2023/12/31 09:40:31;;;;;;;56.57;27.23;;;;;;;;;;4928645;29;20226;-73
2023/12/31 09:42:56;;;;;;;58.77;27.60;;;;;;;;;;4929875;29;20229;-73
2023/12/31 09:45:23;;;;;;;51.43;25.67;;;;;;;;;;4931704;29;21078;-73
2023/12/31 09:47:49;;;;;;;49.67;25.77;;;;;;;;;;4914482;29;20229;-73
2023/12/31 09:50:16;;;;;;;53.20;25.10;;;;;;;;;;4913694;29;20591;-73
2023/12/31 09:52:41;;;;;;;52.80;26.03;;;;;;;;;;4930875;29;20280;-73
2023/12/31 09:55:07;;;;;;;51.53;25.37;;;;;;;;;;4927595;29;20229;-73
2023/12/31 09:57:34;;;;;;;53.57;25.63;;;;;;;;;;4912286;29;20221;-74
2023/12/31 10:00:00;;;;;;;49.27;25.27;;;;;;;;;;4912470;29;20727;-72
2023/12/31 10:02:26;;;;;;;45.47;23.87;;;;;;;;;;4909132;29;20241;-72
2023/12/31 10:04:51;;;;;;;46.93;22.67;;;;;;;;;;4922926;29;20245;-72
2023/12/31 10:07:16;;;;;;;39.83;21.23;;;;;;;;;;4926329;29;20272;-72
2023/12/31 10:09:42;;;;;;;45.40;22.43;;;;;;;;;;4928093;29;20308;-72
2023/12/31 10:12:07;;;;;;;42.37;21.30;;;;;;;;;;4926902;29;20229;-72
2023/12/31 10:14:33;;;;;;;46.20;22.80;;;;;;;;;;4910997;29;20226;-72
2023/12/31 10:16:58;;;;;;;41.90;21.73;;;;;;;;;;4926235;29;20293;-74
2023/12/31 10:19:25;;;;;;;45.17;22.40;;;;;;;;;;4909623;29;20795;-74
2023/12/31 10:21:50;;;;;;;47.80;24.70;;;;;;;;;;4926553;29;20732;-73
2023/12/31 10:24:23;;;;;;;46.40;23.33;;;;;;;;;;4927581;29;20300;-73
2023/12/31 10:26:49;;;;;;;45.20;23.07;;;;;;;;;;4925943;29;20246;-74
2023/12/31 10:29:15;;;;;;;46.57;23.20;;;;;;;;;;4925799;29;20708;-73
2023/12/31 10:31:40;;;;;;;46.70;23.17;;;;;;;;;;4926622;29;20764;-72
2023/12/31 10:34:15;;;;;;;44.20;22.27;;;;;;;;;;4924618;29;20704;-73
2023/12/31 10:36:41;;;;;;;45.43;22.03;;;;;;;;;;4910074;29;20609;-73
2023/12/31 10:39:06;;;;;;;43.70;21.73;;;;;;;;;;4927177;29;20221;-73
2023/12/31 10:41:32;;;;;;;40.63;21.60;;;;;;;;;;4909958;29;20224;-73
2023/12/31 10:43:57;;;;;;;42.63;21.13;;;;;;;;;;4925251;29;20245;-73
2023/12/31 10:46:24;;;;;;;40.80;20.67;;;;;;;;;;4926039;29;20703;-74
2023/12/31 10:48:55;;;;;;;40.13;20.37;;;;;;;;;;4925746;29;20253;-73
2023/12/31 10:51:24;;;;;;;39.20;19.87;;;;;;;;;;4925710;29;20722;-73
2023/12/31 10:53:50;;;;;;;37.63;20.00;;;;;;;;;;4925304;29;20300;-73
2023/12/31 10:56:15;;;;;;;35.40;18.77;;;;;;;;;;4924956;29;20913;-73
2023/12/31 10:58:40;;;;;;;36.43;19.37;;;;;;;;;;4929024;29;20288;-74
2023/12/31 11:01:06;;;;;;;36.43;18.90;;;;;;;;;;4928357;29;20225;-73
2023/12/31 11:03:33;;;;;;;34.20;18.77;;;;;;;;;;4928201;29;20217;-74
2023/12/31 11:06:00;;;;;;;37.53;18.40;;;;;;;;;;4926975;29;20253;-73
2023/12/31 11:08:25;;;;;;;38.23;19.03;;;;;;;;;;4928592;29;20226;-74
2023/12/31 11:10:51;;;;;;;39.20;19.73;;;;;;;;;;4928575;29;20285;-74
2023/12/31 11:13:16;;;;;;;34.90;17.13;;;;;;;;;;4928308;29;20320;-74
2023/12/31 11:15:41;;;;;;;38.60;19.10;;;;;;;;;;4927269;29;20236;-73
2023/12/31 11:18:07;;;;;;;37.30;18.63;;;;;;;;;;4907880;29;20226;-73
2023/12/31 11:20:41;;;;;;;27.73;15.37;;;;;;;;;;4926816;29;20755;-74
2023/12/31 11:23:17;;;;;;;32.10;16.77;;;;;;;;;;4924155;29;20662;-73
2023/12/31 11:25:44;;;;;;;30.63;16.67;;;;;;;;;;4926348;29;21048;-73
2023/12/31 11:28:09;;;;;;;33.87;16.63;;;;;;;;;;4924431;29;20328;-73
2023/12/31 11:31:04;;;;;;;37.53;17.23;;;;;;;;;;4908326;29;20734;-73
2023/12/31 11:33:33;;;;;;;30.27;16.50;;;;;;;;;;4924604;29;20306;-70
2023/12/31 11:36:02;;;;;;;29.00;15.87;;;;;;;;;;4918012;29;20259;-72
2023/12/31 11:38:27;;;;;;;30.87;16.17;;;;;;;;;;4923956;29;20700;-71
2023/12/31 11:40:53;;;;;;;30.87;16.33;;;;;;;;;;4924206;29;20235;-72
2023/12/31 11:43:23;;;;;;;33.87;15.90;;;;;;;;;;4925645;29;20291;-72
2023/12/31 11:45:49;;;;;;;32.07;16.03;;;;;;;;;;4900895;29;20250;-72
2023/12/31 11:48:20;;;;;;;27.90;15.43;;;;;;;;;;4924313;29;20233;-72
2023/12/31 11:50:57;;;;;;;27.80;14.90;;;;;;;;;;4925353;29;20249;-71
2023/12/31 11:53:23;;;;;;;25.47;13.57;;;;;;;;;;4925002;29;20229;-71
2023/12/31 11:56:00;;;;;;;25.87;13.53;;;;;;;;;;4925936;29;20296;-71
2023/12/31 11:58:26;;;;;;;23.60;12.37;;;;;;;;;;4924432;29;20229;-71
2023/12/31 12:00:52;;;;;;;27.57;14.00;;;;;;;;;;4924853;29;20235;-70
2023/12/31 12:03:19;;;;;;;28.00;13.60;;;;;;;;;;4925790;29;20252;-70
2023/12/31 12:05:45;;;;;;;26.30;13.87;;;;;;;;;;4926976;29;20296;-68
2023/12/31 12:08:11;;;;;;;22.40;12.77;;;;;;;;;;4924519;29;20240;-68
2023/12/31 12:10:36;;;;;;;22.97;13.30;;;;;;;;;;4923891;29;20225;-69
2023/12/31 12:13:01;;;;;;;20.13;11.40;;;;;;;;;;4924987;29;20230;-70
2023/12/31 12:15:32;;;;;;;25.00;12.60;;;;;;;;;;4923723;29;20236;-69
2023/12/31 12:17:58;;;;;;;24.30;12.33;;;;;;;;;;4923201;29;20410;-69
2023/12/31 12:20:25;;;;;;;25.60;13.97;;;;;;;;;;4922375;29;20229;-70
2023/12/31 12:22:50;;;;;;;24.57;13.30;;;;;;;;;;4924642;29;20222;-72
2023/12/31 12:25:15;;;;;;;31.03;15.43;;;;;;;;;;4923437;29;20244;-72
2023/12/31 12:27:41;;;;;;;32.50;16.57;;;;;;;;;;4925277;29;20312;-74
2023/12/31 12:30:06;;;;;;;31.50;16.47;;;;;;;;;;4905400;29;20234;-73
2023/12/31 12:32:34;;;;;;;31.53;17.13;;;;;;;;;;4924903;29;20233;-72
2023/12/31 12:35:01;;;;;;;28.73;14.77;;;;;;;;;;4922646;29;20240;-73
2023/12/31 12:37:26;;;;;;;26.63;13.33;;;;;;;;;;4923537;29;20221;-74
2023/12/31 12:39:57;;;;;;;22.87;12.07;;;;;;;;;;4930741;29;20225;-73
2023/12/31 12:42:25;;;;;;;23.53;12.77;;;;;;;;;;4924113;29;20735;-73
2023/12/31 12:44:51;;;;;;;31.20;15.80;;;;;;;;;;4922428;29;20346;-73
2023/12/31 12:47:16;;;;;;;32.00;16.23;;;;;;;;;;4922773;29;20671;-74
2023/12/31 12:49:41;;;;;;;33.67;16.60;;;;;;;;;;4907120;29;20233;-72
2023/12/31 12:52:07;;;;;;;30.40;16.17;;;;;;;;;;4923253;29;20274;-72
2023/12/31 12:54:32;;;;;;;30.70;15.30;;;;;;;;;;4907372;29;20769;-73
2023/12/31 12:56:58;;;;;;;27.83;14.93;;;;;;;;;;4924435;29;20233;-73
2023/12/31 12:59:23;;;;;;;26.00;13.47;;;;;;;;;;4925507;29;20232;-73
2023/12/31 13:01:48;;;;;;;22.77;12.20;;;;;;;;;;4912366;29;20261;-73
2023/12/31 13:04:15;;;;;;;26.00;12.87;;;;;;;;;;4925070;29;20730;-73
2023/12/31 13:06:40;;;;;;;23.30;12.10;;;;;;;;;;4923567;29;20269;-73
2023/12/31 13:09:06;;;;;;;22.47;11.70;;;;;;;;;;4911522;29;20332;-74
2023/12/31 13:11:32;;;;;;;22.83;10.23;;;;;;;;;;4925211;29;20374;-74
2023/12/31 13:13:57;;;;;;;19.27;9.40;;;;;;;;;;4923715;29;20240;-73
2023/12/31 13:16:23;;;;;;;19.57;10.47;;;;;;;;;;4922287;29;20492;-73
2023/12/31 13:18:48;;;;;;;21.47;11.10;;;;;;;;;;4924775;29;20233;-74
2023/12/31 13:21:14;;;;;;;21.03;11.67;;;;;;;;;;4923319;29;20233;-73
2023/12/31 13:23:40;;;;;;;20.10;10.90;;;;;;;;;;4923341;29;20711;-73
2023/12/31 13:26:06;;;;;;;22.97;11.53;;;;;;;;;;4924400;29;20238;-73
2023/12/31 13:28:31;;;;;;;17.03;9.10;;;;;;;;;;4906965;29;20256;-74
2023/12/31 13:30:57;;;;;;;13.27;7.43;;;;;;;;;;4923555;29;20221;-74
2023/12/31 13:33:23;;;;;;;16.83;8.83;;;;;;;;;;4927243;29;20231;-74
2023/12/31 13:35:48;;;;;;;20.47;10.90;;;;;;;;;;4927482;29;20316;-74
2023/12/31 13:38:21;;;;;;;22.20;12.10;;;;;;;;;;4927491;29;20225;-73
2023/12/31 13:40:46;;;;;;;23.80;12.40;;;;;;;;;;4910052;29;20256;-74
2023/12/31 13:43:11;;;;;;;30.07;16.00;;;;;;;;;;4927266;29;20256;-73
2023/12/31 13:45:37;;;;;;;26.63;15.17;;;;;;;;;;4926900;29;20249;-73
2023/12/31 13:48:03;;;;;;;24.87;13.23;;;;;;;;;;4909794;29;20296;-73
2023/12/31 13:50:28;;;;;;;30.43;17.70;;;;;;;;;;4927853;29;20901;-73
2023/12/31 13:52:53;;;;;;;27.80;15.17;;;;;;;;;;4928103;29;20237;-73
2023/12/31 13:55:19;;;;;;;25.77;13.83;;;;;;;;;;4911412;29;20233;-69
2023/12/31 13:57:44;;;;;;;20.63;10.77;;;;;;;;;;4910477;29;20863;-70
2023/12/31 14:00:11;;;;;;;21.50;9.70;;;;;;;;;;4910317;29;20245;-69
2023/12/31 14:02:36;;;;;;;19.97;10.83;;;;;;;;;;4926908;29;20260;-69
2023/12/31 14:05:02;;;;;;;21.07;9.90;;;;;;;;;;4925215;29;20408;-69